WetterOnline ( https://www.wetteronline.de )

Wetter aktuell Frankfurt am Main

Aktuelles Wetter: Offenbach (119m)

6-stündlich | Neueste Meldungen
Ortszeit Temperatur Wetter
Do, 01.12. 19:00 4.2° C bewölkt
Do, 01.12. 13:00 5.1° C bedeckt
Do, 01.12. 7:00 3.9° C bedeckt
Do, 01.12. 1:00 4.4° C Regen
Mi, 30.11. 19:00 6.8° C bedeckt
Mi, 30.11. 13:00 7.4° C bedeckt
Mi, 30.11. 7:00 6.7° C Regen
Mi, 30.11. 1:00 6.2° C Sprühregen
Ortszeit Temperatur Wetter
Do, 01.12. 21:00 4.1° C bedeckt
Do, 01.12. 20:30 4.1° C bedeckt
Do, 01.12. 20:20 4.1° C bedeckt
Do, 01.12. 20:10 4.1° C bedeckt
Do, 01.12. 20:00 4.2° C bedeckt
Do, 01.12. 19:50 4.2° C bedeckt
Do, 01.12. 19:30 4.1° C bedeckt
Do, 01.12. 19:00 4.2° C bewölkt
Do, 01.12. 18:30 4.3° C bedeckt
Do, 01.12. 18:00 4.4° C bedeckt
Ortszeit Relative Feuchte Sichtweite
Do, 01.12. 19:00 83% 11 km
Do, 01.12. 13:00 75% 23 km
Do, 01.12. 7:00 87% 13 km
Do, 01.12. 1:00 95% 4.5 km
Mi, 30.11. 19:00 95% 9 km
Mi, 30.11. 13:00 89% 21 km
Mi, 30.11. 7:00 98% 2.4 km
Mi, 30.11. 1:00 99% 1.8 km
Ortszeit Relative Feuchte Sichtweite
Do, 01.12. 21:00 83% 10 km
Do, 01.12. 20:30 83% 11 km
Do, 01.12. 20:20 83% -
Do, 01.12. 20:10 84% -
Do, 01.12. 20:00 83% 11 km
Do, 01.12. 19:50 83% -
Do, 01.12. 19:30 83% 10 km
Do, 01.12. 19:00 83% 11 km
Do, 01.12. 18:30 82% 13 km
Do, 01.12. 18:00 81% 14 km
Ortszeit Niederschlagsmenge Niederschlagsart
Do, 01.12. 19:00 0.0 l/m2 in 12 Std. -
Do, 01.12. 13:00 0.0 l/m2 in 6 Std. -
Do, 01.12. 7:00 0.1 l/m2 in 12 Std. Sprühregen
Do, 01.12. 1:00 0.1 l/m2 in 6 Std. Sprühregen
Mi, 30.11. 19:00 0.2 l/m2 in 12 Std. Sprühregen
Mi, 30.11. 13:00 0.2 l/m2 in 6 Std. Regen
Mi, 30.11. 7:00 0.5 l/m2 in 12 Std. Regen
Mi, 30.11. 1:00 0.1 l/m2 in 6 Std. Regen
Ortszeit Niederschlagsmenge Niederschlagsart
Do, 01.12. 21:00 keine Meldung -
Do, 01.12. 20:30 0.0 l/m2 in 1 Std. -
Do, 01.12. 20:20 keine Meldung -
Do, 01.12. 20:10 keine Meldung -
Do, 01.12. 20:00 0.0 l/m2 in 1 Std. -
Do, 01.12. 19:50 keine Meldung -
Do, 01.12. 19:30 0.0 l/m2 in 1 Std. -
Do, 01.12. 19:00 0.0 l/m2 in 1 Std. -
Do, 01.12. 18:30 0.0 l/m2 in 1 Std. -
Do, 01.12. 18:00 0.0 l/m2 in 1 Std. -
Ortszeit Stärke Spitze Richtung
km/h Bft. km/h Grad Sektor
Do, 01.12. 19:00 7 2 25 10° N
Do, 01.12. 13:00 7 2 18 10° N
Do, 01.12. 7:00 4 1 14 100° O
Do, 01.12. 1:00 9 2 20 140° SO
Mi, 30.11. 19:00 2 1 9 40° NO
Mi, 30.11. 13:00 2 1 7 150° SO
Mi, 30.11. 7:00 0 0 7 - -
Mi, 30.11. 1:00 0 0 4 - -
Ortszeit Stärke Spitze Richtung
km/h Bft. km/h Grad Sektor
Do, 01.12. 21:00 7 2 19 10° N
Do, 01.12. 20:30 7 2 18 10° N
Do, 01.12. 20:20 7 2 - 10° N
Do, 01.12. 20:10 7 2 - 360° N
Do, 01.12. 20:00 7 2 22 360° N
Do, 01.12. 19:50 7 2 - 360° N
Do, 01.12. 19:30 7 2 18 10° N
Do, 01.12. 19:00 7 2 22 10° N
Do, 01.12. 18:30 7 2 22 360° N
Do, 01.12. 18:00 9 2 20 360° N
Ortszeit Untergrenze Bedeckung Gattung
total tief tief mittel hoch
Do, 01.12. 19:00 2400 m 7/8 7/8 - - -
Do, 01.12. 13:00 660 m 8/8 8/8 - - -
Do, 01.12. 7:00 360 m 8/8 8/8 - - -
Do, 01.12. 1:00 210 m 8/8 8/8 - - -
Mi, 30.11. 19:00 600 m 8/8 8/8 - - -
Mi, 30.11. 13:00 270 m 8/8 8/8 - - -
Mi, 30.11. 7:00 60 m 8/8 8/8 - - -
Mi, 30.11. 1:00 360 m 8/8 8/8 - - -
Ortszeit Bedeckungsgrad in Achtel und Wolkenuntergrenze
Do, 01.12. 21:00 8(2100m)
Do, 01.12. 20:30 8(2100m)
Do, 01.12. 20:20 8(2100m)
Do, 01.12. 20:10 8
Do, 01.12. 20:00 8(2100m)
Do, 01.12. 19:50 8(2100m)
Do, 01.12. 19:30 8(2400m)
Do, 01.12. 19:00 7(2400m)
Do, 01.12. 18:30 2(540m) 8(2400m)
Do, 01.12. 18:00 1(540m) 8(2400m)
Ortszeit Luftdruck NN (hPa) Tendenz (hPa in 3 Std.)
Do, 01.12. 19:00 1025 + 0,1
Do, 01.12. 13:00 1025 - 1,0
Do, 01.12. 7:00 1025 + 0,2
Do, 01.12. 1:00 1025 + 0,3
Mi, 30.11. 19:00 1024 + 0,8
Mi, 30.11. 13:00 1023 - 0,1
Mi, 30.11. 7:00 1022 + 0,4
Mi, 30.11. 1:00 1021 + 0,3
Ortszeit Luftdruck NN (hPa) Tendenz (hPa in 3 Std.)
Do, 01.12. 21:00 1025 - 0,1
Do, 01.12. 20:30 1025 0,0
Do, 01.12. 20:20 1025 keine Meldung
Do, 01.12. 20:10 1025 keine Meldung
Do, 01.12. 20:00 1025 + 0,3
Do, 01.12. 19:50 1025 keine Meldung
Do, 01.12. 19:30 1025 + 0,2
Do, 01.12. 19:00 1025 + 0,1
Do, 01.12. 18:30 1025 + 0,1
Do, 01.12. 18:00 1025 - 0,1
Ortszeit Schneehöhe (cm)
Do, 01.12. 19:00 0
Do, 01.12. 13:00 0
Do, 01.12. 7:00 0
Do, 01.12. 1:00 0
Mi, 30.11. 19:00 0
Mi, 30.11. 13:00 0
Mi, 30.11. 7:00 0
Mi, 30.11. 1:00 0
Ortszeit Schneehöhe (cm)
Do, 01.12. 21:00 -
Do, 01.12. 20:30 0
Do, 01.12. 20:20 0
Do, 01.12. 20:10 0
Do, 01.12. 20:00 0
Do, 01.12. 19:50 0
Do, 01.12. 19:30 0
Do, 01.12. 19:00 0
Do, 01.12. 18:30 0
Do, 01.12. 18:00 0
Link zu dieser Seite / Seite empfehlen

Das Wetter in ...